Time;durP1;ratioP1;P1;durP2;ratioP2;P2;SDS_P1;SDS_P2;PMS_P1;PMS_P2;Temp;Humidity;BMP_temperature;BMP_pressure;BME280_temperature;BME280_humidity;BME280_pressure;Samples;Min_cycle;Max_cycle;Signal;HPM_P1;HPM_P2
2023/03/11 00:01:37;;;;;;;;;;;2.40;81.80;;;;;;5034818;28;19994;-74
2023/03/11 00:04:03;;;;;;;;;;;2.40;81.00;;;;;;5034352;28;20431;-73
2023/03/11 00:06:28;;;;;;;;;;;2.40;81.80;;;;;;5034915;28;19909;-73
2023/03/11 00:08:54;;;;;;;;;;;2.40;79.50;;;;;;5034800;28;19951;-72
2023/03/11 00:11:21;;;;;;;;;;;2.30;78.60;;;;;;5034520;28;19912;-74
2023/03/11 00:13:46;;;;;;;;;;;2.50;80.90;;;;;;5034090;28;19912;-74
2023/03/11 00:16:12;;;;;;;;;;;2.40;77.50;;;;;;5034746;28;19905;-73
2023/03/11 00:18:37;;;;;;;;;;;2.40;79.10;;;;;;5034918;28;20049;-74
2023/03/11 00:21:03;;;;;;;;;;;2.40;78.90;;;;;;5034289;28;19943;-73
2023/03/11 00:23:28;;;;;;;;;;;2.50;80.40;;;;;;5034582;28;19916;-73
2023/03/11 00:25:54;;;;;;;;;;;2.50;79.40;;;;;;5034462;28;20452;-73
2023/03/11 00:28:24;;;;;;;;;;;2.50;78.20;;;;;;5033785;28;19966;-73
2023/03/11 00:30:49;;;;;;;;;;;2.50;77.90;;;;;;5034606;28;19908;-73
2023/03/11 00:33:15;;;;;;;;;;;2.40;76.00;;;;;;5034113;28;20361;-74
2023/03/11 00:35:41;;;;;;;;;;;2.50;72.80;;;;;;5033065;28;19905;-72
2023/03/11 00:38:07;;;;;;;;;;;2.40;72.90;;;;;;5036417;28;19912;-74
2023/03/11 00:40:34;;;;;;;;;;;2.50;75.50;;;;;;5035691;28;19905;-74
2023/03/11 00:42:59;;;;;;;;;;;2.50;75.60;;;;;;5035068;28;19912;-74
2023/03/11 00:45:26;;;;;;;;;;;2.50;73.40;;;;;;5034383;28;20168;-74
2023/03/11 00:47:51;;;;;;;;;;;2.40;73.20;;;;;;5034583;28;19905;-74
2023/03/11 00:50:22;;;;;;;;;;;2.40;73.00;;;;;;5034914;28;20254;-74
2023/03/11 00:52:48;;;;;;;;;;;2.40;75.10;;;;;;5034321;28;20384;-72
2023/03/11 00:55:15;;;;;;;;;;;2.40;74.40;;;;;;5034447;28;19963;-72
2023/03/11 00:57:41;;;;;;;;;;;2.40;76.80;;;;;;5034084;28;20043;-74
2023/03/11 01:00:10;;;;;;;;;;;2.40;76.30;;;;;;5035261;28;20367;-74
2023/03/11 01:02:36;;;;;;;;;;;2.40;75.60;;;;;;5036563;28;20393;-74
2023/03/11 01:05:02;;;;;;;;;;;2.50;76.50;;;;;;5035394;28;19909;-72
2023/03/11 01:07:27;;;;;;;;;;;2.40;75.30;;;;;;5037579;28;19912;-73
2023/03/11 01:09:53;;;;;;;;;;;2.40;76.40;;;;;;5043633;28;19905;-73
2023/03/11 01:12:18;;;;;;;;;;;2.50;76.80;;;;;;5047403;28;19909;-74
2023/03/11 01:14:44;;;;;;;;;;;2.50;76.00;;;;;;5038782;28;20306;-72
2023/03/11 01:17:09;;;;;;;;;;;2.50;74.40;;;;;;5033905;28;19909;-73
2023/03/11 01:19:35;;;;;;;;;;;2.50;74.10;;;;;;5034132;28;19905;-73
2023/03/11 01:22:00;;;;;;;;;;;2.50;74.50;;;;;;5033684;28;20359;-74
2023/03/11 01:24:25;;;;;;;;;;;2.50;74.50;;;;;;5033769;28;19983;-74
2023/03/11 01:26:51;;;;;;;;;;;2.50;75.30;;;;;;5033854;28;20035;-74
2023/03/11 01:29:16;;;;;;;;;;;2.50;76.10;;;;;;5049066;28;20417;-74
2023/03/11 01:31:42;;;;;;;;;;;2.50;77.40;;;;;;5033584;28;19905;-73
2023/03/11 01:34:07;;;;;;;;;;;2.60;78.40;;;;;;5033683;28;19970;-73
2023/03/11 01:36:33;;;;;;;;;;;2.60;76.40;;;;;;5033664;28;19912;-75
2023/03/11 01:38:58;;;;;;;;;;;2.60;76.50;;;;;;5033467;28;19905;-73
2023/03/11 01:41:23;;;;;;;;;;;2.60;79.20;;;;;;5033163;28;20358;-73
2023/03/11 01:43:55;;;;;;;;;;;2.70;77.20;;;;;;5033065;28;20281;-73
2023/03/11 01:46:22;;;;;;;;;;;2.70;76.20;;;;;;5033420;28;19905;-73
2023/03/11 01:48:49;;;;;;;;;;;2.70;75.00;;;;;;5033606;28;19905;-74
2023/03/11 01:51:18;;;;;;;;;;;2.70;74.40;;;;;;5033499;28;20359;-74
2023/03/11 01:53:44;;;;;;;;;;;2.60;75.20;;;;;;5033026;28;19905;-73
2023/03/11 01:56:09;;;;;;;;;;;2.60;74.90;;;;;;5033307;28;19916;-75
2023/03/11 01:58:37;;;;;;;;;;;2.60;76.50;;;;;;5033000;28;19905;-73
2023/03/11 02:01:02;;;;;;;;;;;2.50;78.30;;;;;;5033544;28;20024;-75
2023/03/11 02:03:33;;;;;;;;;;;2.40;78.60;;;;;;5033055;28;20394;-73
2023/03/11 02:06:02;;;;;;;;;;;2.30;79.80;;;;;;5034164;28;19909;-73
2023/03/11 02:08:28;;;;;;;;;;;2.30;79.50;;;;;;5033403;28;20008;-73
2023/03/11 02:10:55;;;;;;;;;;;2.40;78.90;;;;;;5033871;28;19955;-73
2023/03/11 02:13:21;;;;;;;;;;;2.40;77.90;;;;;;5034078;28;19909;-72
2023/03/11 02:15:47;;;;;;;;;;;2.30;78.00;;;;;;5035628;28;19959;-73
2023/03/11 02:18:13;;;;;;;;;;;2.30;77.50;;;;;;5035583;28;19911;-74
2023/03/11 02:20:45;;;;;;;;;;;2.20;77.90;;;;;;5062047;28;19894;-73
2023/03/11 02:23:14;;;;;;;;;;;2.10;80.20;;;;;;5041469;28;19915;-73
2023/03/11 02:25:46;;;;;;;;;;;2.10;80.40;;;;;;5034195;28;19905;-75
2023/03/11 02:28:13;;;;;;;;;;;2.00;80.50;;;;;;5036242;28;19941;-73
2023/03/11 02:30:40;;;;;;;;;;;1.90;80.90;;;;;;5051065;28;19917;-73
2023/03/11 02:33:05;;;;;;;;;;;1.80;80.10;;;;;;5068366;28;19905;-73
2023/03/11 02:35:31;;;;;;;;;;;1.80;80.90;;;;;;5038724;28;20267;-74
2023/03/11 02:37:56;;;;;;;;;;;1.80;79.30;;;;;;5041867;28;20385;-74
2023/03/11 02:40:21;;;;;;;;;;;1.80;79.90;;;;;;5042022;28;20363;-74
2023/03/11 02:42:48;;;;;;;;;;;1.60;80.40;;;;;;5041482;28;20281;-73
2023/03/11 02:45:15;;;;;;;;;;;1.60;80.00;;;;;;5037489;28;19905;-74
2023/03/11 02:47:41;;;;;;;;;;;1.60;81.30;;;;;;5037568;28;19908;-73
2023/03/11 02:50:08;;;;;;;;;;;1.60;79.30;;;;;;5037610;28;19905;-73
2023/03/11 02:52:34;;;;;;;;;;;1.50;78.50;;;;;;5036800;28;19974;-74
2023/03/11 02:54:59;;;;;;;;;;;1.50;80.00;;;;;;5037081;28;19928;-74
2023/03/11 02:57:25;;;;;;;;;;;1.50;78.50;;;;;;5038304;28;19905;-73
2023/03/11 02:59:50;;;;;;;;;;;1.60;75.30;;;;;;5036471;28;19905;-73
2023/03/11 03:02:16;;;;;;;;;;;1.60;73.70;;;;;;5036308;28;20273;-73
2023/03/11 03:04:41;;;;;;;;;;;1.60;74.70;;;;;;5036334;28;19912;-73
2023/03/11 03:07:07;;;;;;;;;;;1.40;75.50;;;;;;5036896;28;19972;-74
2023/03/11 03:09:33;;;;;;;;;;;1.30;77.50;;;;;;5054543;28;19912;-74
2023/03/11 03:11:59;;;;;;;;;;;1.30;77.40;;;;;;5040522;28;19964;-73
2023/03/11 03:14:24;;;;;;;;;;;1.20;78.30;;;;;;5043296;28;19962;-74
2023/03/11 03:16:50;;;;;;;;;;;1.20;77.70;;;;;;5049317;28;19905;-73
2023/03/11 03:19:15;;;;;;;;;;;1.10;79.50;;;;;;5046971;28;19905;-74
2023/03/11 03:21:41;;;;;;;;;;;1.10;80.50;;;;;;5049178;28;19905;-73
2023/03/11 03:24:06;;;;;;;;;;;1.10;80.30;;;;;;5039346;28;19956;-72
2023/03/11 03:26:32;;;;;;;;;;;1.00;78.40;;;;;;5036552;28;19948;-74
2023/03/11 03:28:57;;;;;;;;;;;1.10;78.50;;;;;;5040876;28;19978;-73
2023/03/11 03:31:22;;;;;;;;;;;1.30;72.90;;;;;;5038002;28;19916;-73
2023/03/11 03:33:48;;;;;;;;;;;1.30;71.00;;;;;;5037072;28;19905;-73
2023/03/11 03:36:14;;;;;;;;;;;1.20;73.40;;;;;;5035871;28;20359;-75
2023/03/11 03:38:39;;;;;;;;;;;1.20;72.40;;;;;;5037043;28;19927;-74
2023/03/11 03:41:05;;;;;;;;;;;1.10;75.00;;;;;;5037502;28;19905;-73
2023/03/11 03:43:30;;;;;;;;;;;1.20;74.50;;;;;;5037642;28;19909;-73
2023/03/11 03:45:57;;;;;;;;;;;1.10;74.40;;;;;;5036511;28;20362;-73
2023/03/11 03:48:22;;;;;;;;;;;1.10;75.60;;;;;;5035226;28;19905;-74
2023/03/11 03:50:48;;;;;;;;;;;1.20;73.00;;;;;;5049895;28;20393;-74
2023/03/11 03:53:13;;;;;;;;;;;1.20;70.30;;;;;;5036767;28;19913;-74
2023/03/11 03:55:39;;;;;;;;;;;1.30;68.50;;;;;;5036737;28;19920;-74
2023/03/11 03:58:04;;;;;;;;;;;1.30;67.00;;;;;;5037066;28;19912;-74
2023/03/11 04:00:29;;;;;;;;;;;1.30;66.70;;;;;;5038575;28;19905;-74
2023/03/11 04:02:55;;;;;;;;;;;1.30;67.60;;;;;;5038252;28;19916;-74
2023/03/11 04:05:21;;;;;;;;;;;1.30;68.10;;;;;;5041534;28;20353;-74
2023/03/11 04:07:46;;;;;;;;;;;1.20;67.50;;;;;;5035893;28;19905;-72
2023/03/11 04:10:12;;;;;;;;;;;1.20;66.80;;;;;;5035175;28;19939;-74
2023/03/11 04:12:38;;;;;;;;;;;1.20;67.90;;;;;;5047541;28;19905;-73
2023/03/11 04:15:03;;;;;;;;;;;1.20;67.30;;;;;;5052620;28;19949;-73
2023/03/11 04:17:29;;;;;;;;;;;1.20;66.70;;;;;;5056438;28;19905;-73
2023/03/11 04:19:54;;;;;;;;;;;1.20;67.10;;;;;;5057537;28;19912;-74
2023/03/11 04:22:20;;;;;;;;;;;1.10;68.70;;;;;;5055707;28;19928;-74
2023/03/11 04:24:45;;;;;;;;;;;1.00;71.10;;;;;;5050586;28;19992;-72
2023/03/11 04:27:10;;;;;;;;;;;0.90;72.10;;;;;;5044492;28;19909;-74
2023/03/11 04:29:36;;;;;;;;;;;1.00;72.00;;;;;;5034647;28;20109;-73
2023/03/11 04:32:01;;;;;;;;;;;1.10;71.00;;;;;;5034002;28;19905;-72
2023/03/11 04:34:27;;;;;;;;;;;1.10;70.40;;;;;;5034368;28;19916;-72
2023/03/11 04:36:53;;;;;;;;;;;1.00;68.40;;;;;;5034257;28;20534;-73
2023/03/11 04:39:18;;;;;;;;;;;0.80;70.90;;;;;;5034245;28;19928;-73
2023/03/11 04:41:44;;;;;;;;;;;0.80;73.70;;;;;;5033916;28;19999;-74
2023/03/11 04:44:09;;;;;;;;;;;0.80;70.70;;;;;;5033933;28;19924;-73
2023/03/11 04:46:35;;;;;;;;;;;0.90;70.70;;;;;;5035748;28;19913;-74
2023/03/11 04:49:00;;;;;;;;;;;1.00;68.80;;;;;;5033645;28;20422;-72
2023/03/11 04:51:26;;;;;;;;;;;0.90;69.50;;;;;;5034559;28;19905;-73
2023/03/11 04:53:51;;;;;;;;;;;0.80;70.80;;;;;;5034530;28;19913;-74
2023/03/11 04:56:16;;;;;;;;;;;0.70;71.20;;;;;;5033863;28;20003;-73
2023/03/11 04:58:42;;;;;;;;;;;0.60;72.60;;;;;;5035793;28;19951;-73
2023/03/11 05:01:07;;;;;;;;;;;0.60;72.40;;;;;;5036633;28;19905;-74
2023/03/11 05:03:33;;;;;;;;;;;0.50;72.30;;;;;;5036724;28;20420;-73
2023/03/11 05:05:59;;;;;;;;;;;0.50;73.70;;;;;;5035332;28;19947;-73
2023/03/11 05:08:24;;;;;;;;;;;0.50;75.10;;;;;;5036222;28;19905;-74
2023/03/11 05:10:51;;;;;;;;;;;0.50;75.80;;;;;;5037155;28;20381;-73
2023/03/11 05:13:17;;;;;;;;;;;0.50;74.90;;;;;;5037369;28;20036;-74
2023/03/11 05:15:43;;;;;;;;;;;0.50;74.30;;;;;;5035783;28;19909;-73
2023/03/11 05:18:09;;;;;;;;;;;0.60;74.50;;;;;;5036047;28;19905;-74
2023/03/11 05:20:34;;;;;;;;;;;0.60;73.00;;;;;;5047664;28;19972;-73
2023/03/11 05:23:00;;;;;;;;;;;0.80;72.40;;;;;;5045401;28;19945;-73
2023/03/11 05:25:25;;;;;;;;;;;1.00;70.60;;;;;;5036395;28;19912;-74
2023/03/11 05:27:51;;;;;;;;;;;1.10;68.60;;;;;;5033022;28;19913;-73
2023/03/11 05:30:17;;;;;;;;;;;1.10;67.50;;;;;;5032952;28;20377;-74
2023/03/11 05:32:42;;;;;;;;;;;1.20;69.40;;;;;;5032571;28;20346;-73
2023/03/11 05:35:08;;;;;;;;;;;1.40;65.40;;;;;;5032395;28;19912;-72
2023/03/11 05:37:34;;;;;;;;;;;1.50;62.30;;;;;;5032706;28;20359;-74
2023/03/11 05:39:59;;;;;;;;;;;1.40;64.30;;;;;;5038259;28;19905;-73
2023/03/11 05:42:25;;;;;;;;;;;1.50;64.60;;;;;;5045054;28;19913;-72
2023/03/11 05:44:50;;;;;;;;;;;1.40;65.80;;;;;;5036525;28;19944;-73
2023/03/11 05:47:16;;;;;;;;;;;1.50;66.30;;;;;;5036877;28;20008;-73
2023/03/11 05:49:41;;;;;;;;;;;1.70;62.20;;;;;;5036451;28;20414;-73
2023/03/11 05:52:07;;;;;;;;;;;1.80;59.80;;;;;;5035068;28;19914;-72
2023/03/11 05:54:32;;;;;;;;;;;1.80;58.30;;;;;;5037127;28;20394;-73
2023/03/11 05:56:58;;;;;;;;;;;1.80;58.10;;;;;;5035825;28;20062;-74
2023/03/11 05:59:24;;;;;;;;;;;1.80;58.80;;;;;;5039799;28;19941;-73
2023/03/11 06:01:49;;;;;;;;;;;1.70;59.70;;;;;;5033305;28;19912;-74
2023/03/11 06:04:14;;;;;;;;;;;1.60;63.30;;;;;;5032590;28;19955;-73
2023/03/11 06:06:40;;;;;;;;;;;1.60;63.40;;;;;;5032690;28;19999;-73
2023/03/11 06:09:06;;;;;;;;;;;1.70;62.10;;;;;;5034464;28;19905;-72
2023/03/11 06:11:31;;;;;;;;;;;1.80;60.90;;;;;;5034158;28;19905;-73
2023/03/11 06:13:57;;;;;;;;;;;1.60;61.30;;;;;;5033476;28;20270;-73
2023/03/11 06:16:23;;;;;;;;;;;1.70;59.70;;;;;;5038340;28;19893;-73
2023/03/11 06:18:49;;;;;;;;;;;1.70;62.10;;;;;;5041398;28;20008;-73
2023/03/11 06:21:19;;;;;;;;;;;1.70;62.60;;;;;;5035543;28;19952;-75
2023/03/11 06:23:44;;;;;;;;;;;1.60;65.10;;;;;;5034306;28;20231;-75
2023/03/11 06:26:12;;;;;;;;;;;1.50;67.70;;;;;;5034331;28;19909;-74
2023/03/11 06:28:38;;;;;;;;;;;1.30;69.60;;;;;;5034464;28;19916;-73
2023/03/11 06:31:07;;;;;;;;;;;1.30;66.60;;;;;;5033889;28;20091;-73
2023/03/11 06:33:33;;;;;;;;;;;1.40;64.20;;;;;;5034097;28;19905;-73
2023/03/11 06:35:59;;;;;;;;;;;1.60;60.40;;;;;;5037286;28;20289;-74
2023/03/11 06:38:24;;;;;;;;;;;1.60;60.00;;;;;;5037237;28;19915;-73
2023/03/11 06:40:50;;;;;;;;;;;1.90;59.60;;;;;;5033516;28;20011;-73
2023/03/11 06:43:15;;;;;;;;;;;1.80;57.70;;;;;;5033041;28;19989;-73
2023/03/11 06:45:41;;;;;;;;;;;1.70;60.50;;;;;;5032877;28;19906;-74
2023/03/11 06:48:06;;;;;;;;;;;1.50;62.50;;;;;;5033289;28;19909;-74
2023/03/11 06:50:32;;;;;;;;;;;1.50;65.20;;;;;;5035419;28;19913;-74
2023/03/11 06:52:57;;;;;;;;;;;1.40;64.80;;;;;;5034471;28;19905;-73
2023/03/11 06:55:23;;;;;;;;;;;1.60;65.30;;;;;;5037376;28;19912;-73
2023/03/11 06:57:48;;;;;;;;;;;1.70;61.90;;;;;;5036988;28;20345;-74
2023/03/11 07:00:14;;;;;;;;;;;1.80;59.70;;;;;;5034924;28;19951;-72
2023/03/11 07:02:40;;;;;;;;;;;1.80;57.80;;;;;;5036468;28;19905;-74
2023/03/11 07:05:06;;;;;;;;;;;1.70;60.10;;;;;;5038677;28;19944;-73
2023/03/11 07:07:31;;;;;;;;;;;1.70;59.80;;;;;;5041039;28;19905;-72
2023/03/11 07:09:57;;;;;;;;;;;1.80;57.50;;;;;;5042958;28;20488;-73
2023/03/11 07:12:24;;;;;;;;;;;1.80;58.10;;;;;;5033259;28;19917;-73
2023/03/11 07:14:55;;;;;;;;;;;1.70;58.30;;;;;;5033771;28;20385;-73
2023/03/11 07:17:21;;;;;;;;;;;1.60;61.30;;;;;;5034663;28;19905;-73
2023/03/11 07:19:46;;;;;;;;;;;1.50;62.30;;;;;;5033555;28;19909;-73
2023/03/11 07:22:12;;;;;;;;;;;1.70;59.30;;;;;;5033039;28;19905;-73
2023/03/11 07:24:37;;;;;;;;;;;1.80;57.30;;;;;;5038071;28;20382;-73
2023/03/11 07:27:03;;;;;;;;;;;1.80;55.90;;;;;;5037677;28;19935;-72
2023/03/11 07:29:28;;;;;;;;;;;1.90;55.80;;;;;;5036111;28;19918;-74
2023/03/11 07:31:54;;;;;;;;;;;1.90;55.60;;;;;;5035667;28;19908;-74
2023/03/11 07:34:19;;;;;;;;;;;1.90;55.60;;;;;;5035830;28;19905;-73
2023/03/11 07:36:45;;;;;;;;;;;2.00;56.20;;;;;;5035869;28;19905;-74
2023/03/11 07:39:15;;;;;;;;;;;2.10;55.80;;;;;;5036970;28;19948;-72
2023/03/11 07:41:40;;;;;;;;;;;2.30;52.70;;;;;;5036997;28;19905;-75
2023/03/11 07:44:06;;;;;;;;;;;2.50;50.00;;;;;;5038344;28;19920;-73
2023/03/11 07:46:31;;;;;;;;;;;2.50;48.90;;;;;;5037321;28;19958;-73
2023/03/11 07:48:57;;;;;;;;;;;2.40;47.60;;;;;;5036421;28;19905;-73
2023/03/11 07:51:24;;;;;;;;;;;2.40;47.00;;;;;;5036827;28;20359;-73
2023/03/11 07:53:51;;;;;;;;;;;2.40;49.90;;;;;;5037121;28;19912;-73
2023/03/11 07:56:16;;;;;;;;;;;2.40;47.00;;;;;;5036580;28;19995;-73
2023/03/11 07:58:42;;;;;;;;;;;2.30;48.10;;;;;;5036738;28;19998;-73
2023/03/11 08:01:09;;;;;;;;;;;2.40;49.10;;;;;;5036720;28;20092;-73
2023/03/11 08:03:35;;;;;;;;;;;2.50;48.40;;;;;;5038127;28;19920;-75
2023/03/11 08:06:01;;;;;;;;;;;2.50;47.50;;;;;;5038750;28;19905;-75
2023/03/11 08:08:27;;;;;;;;;;;2.60;48.20;;;;;;5037165;28;19909;-75
2023/03/11 08:10:52;;;;;;;;;;;2.60;47.20;;;;;;5037121;28;19956;-74
2023/03/11 08:13:18;;;;;;;;;;;2.60;45.60;;;;;;5036518;28;19912;-74
2023/03/11 08:15:43;;;;;;;;;;;2.70;47.00;;;;;;5035899;28;19988;-74
2023/03/11 08:18:09;;;;;;;;;;;2.80;47.70;;;;;;5035887;28;19905;-73
2023/03/11 08:20:36;;;;;;;;;;;2.90;46.10;;;;;;5036149;28;19905;-74
2023/03/11 08:23:02;;;;;;;;;;;3.00;44.90;;;;;;5035501;28;19905;-73
2023/03/11 08:25:27;;;;;;;;;;;3.00;42.80;;;;;;5035165;28;19905;-73
2023/03/11 08:27:53;;;;;;;;;;;3.10;42.00;;;;;;5035633;28;19917;-74
2023/03/11 08:30:18;;;;;;;;;;;3.00;40.90;;;;;;5038706;28;19947;-74
2023/03/11 08:32:45;;;;;;;;;;;3.10;43.70;;;;;;5035765;28;20281;-74
2023/03/11 08:35:11;;;;;;;;;;;3.20;42.00;;;;;;5035512;28;20379;-72
2023/03/11 08:37:39;;;;;;;;;;;3.30;43.20;;;;;;5037226;28;19948;-74
2023/03/11 08:40:05;;;;;;;;;;;3.40;38.10;;;;;;5038234;28;19909;-74
2023/03/11 08:42:30;;;;;;;;;;;3.40;38.40;;;;;;5041996;28;19916;-74
2023/03/11 08:44:56;;;;;;;;;;;3.50;37.30;;;;;;5040627;28;19917;-74
2023/03/11 08:47:21;;;;;;;;;;;3.50;36.60;;;;;;5044288;28;19916;-74
2023/03/11 08:49:47;;;;;;;;;;;3.60;37.00;;;;;;5033922;28;20003;-74
2023/03/11 08:52:12;;;;;;;;;;;3.70;35.10;;;;;;5033813;28;20396;-74
2023/03/11 08:54:38;;;;;;;;;;;3.80;31.40;;;;;;5049670;28;19981;-74
2023/03/11 08:57:03;;;;;;;;;;;3.80;31.40;;;;;;5034173;28;19915;-74
2023/03/11 08:59:29;;;;;;;;;;;3.80;31.80;;;;;;5033469;28;20444;-74
2023/03/11 09:01:54;;;;;;;;;;;3.90;32.10;;;;;;5033840;28;19909;-74
2023/03/11 09:04:20;;;;;;;;;;;4.00;30.20;;;;;;5050156;28;19943;-74
2023/03/11 09:06:47;;;;;;;;;;;4.00;29.00;;;;;;5035178;28;19999;-74
2023/03/11 09:09:15;;;;;;;;;;;4.00;29.40;;;;;;5035130;28;19909;-74
2023/03/11 09:11:40;;;;;;;;;;;4.20;29.70;;;;;;5036502;28;19916;-74
2023/03/11 09:14:06;;;;;;;;;;;4.40;29.70;;;;;;5035652;28;19913;-74
2023/03/11 09:16:32;;;;;;;;;;;4.50;25.30;;;;;;5051224;28;20283;-74
2023/03/11 09:18:59;;;;;;;;;;;4.60;26.10;;;;;;5033986;28;19909;-73
2023/03/11 09:21:24;;;;;;;;;;;4.70;26.20;;;;;;5034250;28;20314;-72
2023/03/11 09:23:50;;;;;;;;;;;4.80;26.70;;;;;;5035958;28;19913;-74
2023/03/11 09:26:15;;;;;;;;;;;5.00;25.50;;;;;;5038878;28;19909;-73
2023/03/11 09:28:41;;;;;;;;;;;5.40;24.70;;;;;;5034718;28;19917;-74
2023/03/11 09:31:07;;;;;;;;;;;5.70;23.00;;;;;;5034190;28;19920;-74
2023/03/11 09:33:37;;;;;;;;;;;6.10;23.70;;;;;;5034292;28;19909;-73
2023/03/11 09:36:02;;;;;;;;;;;6.60;20.00;;;;;;5035343;28;20163;-74
2023/03/11 09:38:28;;;;;;;;;;;6.70;18.30;;;;;;5037039;28;20327;-73
2023/03/11 09:41:08;;;;;;;;;;;6.60;18.50;;;;;;5039804;28;19916;-74
2023/03/11 09:43:43;;;;;;;;;;;6.80;19.00;;;;;;5042307;28;19936;-74
2023/03/11 09:46:27;;;;;;;;;;;6.80;19.10;;;;;;5040240;28;19909;-74
2023/03/11 09:48:58;;;;;;;;;;;6.80;17.90;;;;;;5039454;28;20008;-75
2023/03/11 09:51:31;;;;;;;;;;;6.10;17.90;;;;;;5034448;28;19909;-74
2023/03/11 09:54:05;;;;;;;;;;;5.60;19.20;;;;;;5032779;28;19967;-74
2023/03/11 09:56:33;;;;;;;;;;;5.50;20.00;;;;;;5032799;28;19910;-74
2023/03/11 09:59:05;;;;;;;;;;;5.50;19.70;;;;;;5033377;28;19909;-74
2023/03/11 10:01:36;;;;;;;;;;;5.50;19.10;;;;;;5035037;28;19948;-74
2023/03/11 10:04:10;;;;;;;;;;;5.70;19.80;;;;;;5035505;28;19913;-75
2023/03/11 10:06:36;;;;;;;;;;;6.00;19.50;;;;;;5025090;28;19954;-74
2023/03/11 10:09:11;;;;;;;;;;;6.40;17.80;;;;;;5033294;28;19916;-75
2023/03/11 10:11:48;;;;;;;;;;;6.60;16.60;;;;;;5013911;28;19920;-75
2023/03/11 10:14:19;;;;;;;;;;;6.70;15.00;;;;;;5015981;28;19909;-74
2023/03/11 10:17:08;;;;;;;;;;;6.80;14.20;;;;;;5033007;28;19913;-74
2023/03/11 10:19:47;;;;;;;;;;;6.30;13.80;;;;;;5024520;28;19909;-74
2023/03/11 10:22:22;;;;;;;;;;;5.90;15.10;;;;;;5013263;28;20276;-74
2023/03/11 10:25:04;;;;;;;;;;;6.10;16.20;;;;;;5012826;28;19913;-74
2023/03/11 10:27:33;;;;;;;;;;;6.00;14.80;;;;;;5012701;28;20367;-74
2023/03/11 10:30:02;;;;;;;;;;;6.00;15.90;;;;;;5012629;28;19917;-73
2023/03/11 10:32:34;;;;;;;;;;;6.10;15.50;;;;;;5045828;28;19909;-74
2023/03/11 10:35:04;;;;;;;;;;;6.20;15.60;;;;;;5013194;28;19939;-74
2023/03/11 10:37:31;;;;;;;;;;;6.40;15.00;;;;;;5013121;28;20000;-74
2023/03/11 10:40:01;;;;;;;;;;;6.60;15.40;;;;;;5016704;28;20001;-75
2023/03/11 10:42:27;;;;;;;;;;;6.80;14.60;;;;;;5017925;28;19913;-76
2023/03/11 10:44:53;;;;;;;;;;;6.80;14.20;;;;;;5015489;28;20375;-76
2023/03/11 10:47:20;;;;;;;;;;;6.70;13.90;;;;;;5022651;28;19947;-72
2023/03/11 10:49:45;;;;;;;;;;;6.50;14.00;;;;;;5026805;28;19913;-73
2023/03/11 10:52:11;;;;;;;;;;;6.30;13.70;;;;;;5024303;28;19924;-73
2023/03/11 10:54:44;;;;;;;;;;;6.40;14.00;;;;;;5031995;28;19913;-73
2023/03/11 10:57:27;;;;;;;;;;;6.70;14.20;;;;;;5033806;28;19936;-70
2023/03/11 10:59:57;;;;;;;;;;;7.10;14.10;;;;;;5037791;28;19920;-71
2023/03/11 11:02:24;;;;;;;;;;;7.30;13.10;;;;;;5035664;28;20475;-72
2023/03/11 11:05:02;;;;;;;;;;;7.20;13.00;;;;;;5018313;28;19928;-71
2023/03/11 11:07:29;;;;;;;;;;;7.10;13.30;;;;;;5016157;28;19958;-71
2023/03/11 11:10:10;;;;;;;;;;;6.60;13.20;;;;;;5019614;28;19969;-71
2023/03/11 11:12:36;;;;;;;;;;;6.50;14.30;;;;;;5025390;28;19917;-72
2023/03/11 11:15:02;;;;;;;;;;;6.30;14.20;;;;;;5033769;28;19909;-71
2023/03/11 11:17:29;;;;;;;;;;;6.10;14.10;;;;;;5051050;28;19924;-73
2023/03/11 11:19:56;;;;;;;;;;;6.10;14.20;;;;;;5048029;28;19913;-72
2023/03/11 11:22:22;;;;;;;;;;;6.10;15.20;;;;;;5047190;28;19916;-72
2023/03/11 11:24:52;;;;;;;;;;;6.30;14.70;;;;;;5045981;28;19913;-74
2023/03/11 11:27:22;;;;;;;;;;;6.60;13.70;;;;;;5037455;28;19939;-72
2023/03/11 11:30:01;;;;;;;;;;;6.90;13.70;;;;;;5026656;28;19956;-72
2023/03/11 11:32:26;;;;;;;;;;;7.30;12.60;;;;;;5027866;28;19909;-72
2023/03/11 11:35:01;;;;;;;;;;;7.50;12.30;;;;;;5042490;28;19909;-74
2023/03/11 11:37:31;;;;;;;;;;;7.70;12.10;;;;;;5044623;28;19910;-76
2023/03/11 11:39:58;;;;;;;;;;;7.80;11.60;;;;;;5044436;28;19920;-74
2023/03/11 11:42:26;;;;;;;;;;;7.40;12.20;;;;;;5060529;28;19960;-73
2023/03/11 11:44:56;;;;;;;;;;;6.80;12.80;;;;;;5048453;28;19917;-72
2023/03/11 11:47:23;;;;;;;;;;;6.70;13.90;;;;;;5049807;28;20007;-74
2023/03/11 11:49:51;;;;;;;;;;;6.80;13.80;;;;;;5050974;28;19920;-73
2023/03/11 11:52:19;;;;;;;;;;;7.00;13.40;;;;;;5036704;28;19913;-73
2023/03/11 11:54:55;;;;;;;;;;;7.20;12.60;;;;;;5027403;28;19909;-73
2023/03/11 11:57:22;;;;;;;;;;;7.40;12.50;;;;;;5030337;28;20294;-74
2023/03/11 11:59:48;;;;;;;;;;;7.70;12.60;;;;;;5039663;28;19964;-73
2023/03/11 12:02:13;;;;;;;;;;;8.00;11.90;;;;;;5037882;28;20363;-74
2023/03/11 12:04:53;;;;;;;;;;;8.30;11.60;;;;;;5018670;28;20035;-72
2023/03/11 12:07:34;;;;;;;;;;;8.60;11.40;;;;;;5019269;28;19910;-72
2023/03/11 12:10:12;;;;;;;;;;;8.70;11.40;;;;;;5015798;28;20386;-72
2023/03/11 12:12:38;;;;;;;;;;;8.60;10.90;;;;;;5014150;28;19910;-70
2023/03/11 12:15:06;;;;;;;;;;;8.60;10.80;;;;;;5015649;28;19944;-71
2023/03/11 12:17:34;;;;;;;;;;;8.70;10.60;;;;;;5016593;28;19922;-74
2023/03/11 12:20:02;;;;;;;;;;;8.60;10.80;;;;;;5017690;28;19913;-74
2023/03/11 12:22:38;;;;;;;;;;;8.70;10.30;;;;;;5016631;28;19964;-72
2023/03/11 12:25:20;;;;;;;;;;;9.10;9.00;;;;;;5016025;28;19920;-75
2023/03/11 12:27:49;;;;;;;;;;;9.10;8.80;;;;;;5015052;28;19924;-72
2023/03/11 12:30:35;;;;;;;;;;;8.90;10.10;;;;;;5015193;28;19914;-70
2023/03/11 12:33:05;;;;;;;;;;;8.60;10.50;;;;;;5031742;28;19914;-71
2023/03/11 12:35:34;;;;;;;;;;;8.40;11.40;;;;;;5034331;28;19909;-70
2023/03/11 12:38:03;;;;;;;;;;;8.30;11.50;;;;;;5030583;28;20324;-71
2023/03/11 12:40:43;;;;;;;;;;;8.30;12.10;;;;;;5011895;28;19996;-72
2023/03/11 12:43:47;;;;;;;;;;;8.00;11.60;;;;;;5020461;28;19917;-71
2023/03/11 12:46:13;;;;;;;;;;;7.80;12.20;;;;;;5031019;28;20421;-70
2023/03/11 12:48:41;;;;;;;;;;;7.40;12.00;;;;;;5032174;28;19932;-71
2023/03/11 12:51:27;;;;;;;;;;;7.20;13.20;;;;;;5033485;28;19914;-72
2023/03/11 12:53:55;;;;;;;;;;;7.10;13.10;;;;;;5032331;28;19913;-71
2023/03/11 12:56:27;;;;;;;;;;;6.90;13.20;;;;;;5027744;28;19923;-72
2023/03/11 12:59:08;;;;;;;;;;;6.80;13.50;;;;;;5034331;28;19912;-71
2023/03/11 13:01:42;;;;;;;;;;;6.80;13.80;;;;;;5046452;28;19913;-70
2023/03/11 13:04:27;;;;;;;;;;;6.90;12.70;;;;;;5045940;28;19921;-71
2023/03/11 13:06:55;;;;;;;;;;;7.00;12.20;;;;;;5019881;28;19913;-71
2023/03/11 13:09:20;;;;;;;;;;;7.10;12.40;;;;;;5034162;28;19924;-71
2023/03/11 13:11:46;;;;;;;;;;;7.10;12.30;;;;;;5042735;28;19971;-70
2023/03/11 13:14:21;;;;;;;;;;;7.20;11.10;;;;;;5037557;28;19921;-71
2023/03/11 13:16:47;;;;;;;;;;;7.20;11.30;;;;;;5032257;28;19974;-70
2023/03/11 13:19:24;;;;;;;;;;;7.40;12.10;;;;;;5032706;28;20430;-72
2023/03/11 13:21:50;;;;;;;;;;;7.30;11.10;;;;;;5016818;28;19910;-73
2023/03/11 13:24:24;;;;;;;;;;;7.00;10.70;;;;;;5019982;28;19917;-71
2023/03/11 13:26:56;;;;;;;;;;;6.90;11.40;;;;;;5034915;28;19909;-71
2023/03/11 13:29:28;;;;;;;;;;;6.90;11.70;;;;;;5033373;28;19917;-71
2023/03/11 13:32:12;;;;;;;;;;;7.10;13.20;;;;;;5032734;28;19909;-71
2023/03/11 13:34:39;;;;;;;;;;;7.40;12.50;;;;;;5033110;28;19972;-71
2023/03/11 13:37:16;;;;;;;;;;;7.50;12.20;;;;;;5032777;28;19909;-70
2023/03/11 13:39:42;;;;;;;;;;;7.60;12.20;;;;;;5034224;28;20351;-71
2023/03/11 13:42:12;;;;;;;;;;;7.50;12.10;;;;;;5033442;28;19999;-72
2023/03/11 13:44:39;;;;;;;;;;;7.50;12.10;;;;;;5039593;28;20000;-71
2023/03/11 13:47:12;;;;;;;;;;;7.40;10.60;;;;;;5037079;28;19995;-71
2023/03/11 13:49:51;;;;;;;;;;;7.40;10.20;;;;;;5033867;28;19955;-71
2023/03/11 13:52:25;;;;;;;;;;;7.30;10.80;;;;;;5034293;28;19913;-70
2023/03/11 13:54:57;;;;;;;;;;;7.40;10.80;;;;;;5034948;28;19909;-70
2023/03/11 13:57:24;;;;;;;;;;;8.00;11.40;;;;;;5033586;28;19909;-71
2023/03/11 13:59:50;;;;;;;;;;;8.80;11.90;;;;;;5034103;28;20424;-71
2023/03/11 14:02:17;;;;;;;;;;;9.70;9.00;;;;;;5039150;28;19917;-72
2023/03/11 14:05:03;;;;;;;;;;;10.50;8.00;;;;;;5044646;28;19913;-71
2023/03/11 14:07:30;;;;;;;;;;;10.80;7.30;;;;;;5045463;28;19944;-71
2023/03/11 14:10:28;;;;;;;;;;;11.00;6.80;;;;;;5041580;28;19913;-73
2023/03/11 14:13:04;;;;;;;;;;;11.30;6.60;;;;;;5003870;28;19909;-71
2023/03/11 14:15:32;;;;;;;;;;;10.80;5.80;;;;;;5050516;28;19909;-71
2023/03/11 14:18:18;;;;;;;;;;;9.20;8.00;;;;;;5048699;28;19913;-71
2023/03/11 14:20:45;;;;;;;;;;;8.70;9.60;;;;;;5050321;28;19920;-72
2023/03/11 14:23:15;;;;;;;;;;;9.30;9.20;;;;;;5044043;28;19964;-72
2023/03/11 14:25:41;;;;;;;;;;;9.20;9.00;;;;;;5033454;28;19913;-72
2023/03/11 14:28:16;;;;;;;;;;;9.60;8.80;;;;;;5041915;28;19955;-72
2023/03/11 14:30:54;;;;;;;;;;;10.00;8.10;;;;;;5058129;28;19955;-71
2023/03/11 14:33:21;;;;;;;;;;;10.60;7.20;;;;;;5045419;28;19913;-73
2023/03/11 14:35:51;;;;;;;;;;;11.00;6.40;;;;;;5047981;28;19919;-71